sensor_id;sensor_type;location;lat;lon;timestamp;P1;durP1;ratioP1;P2;durP2;ratioP2
8277;SDS011;4177;50.994;6.210;2022-07-11T00:00:05;9.53;;;3.60;;
8277;SDS011;4177;50.994;6.210;2022-07-11T00:02:31;5.57;;;3.40;;
8277;SDS011;4177;50.994;6.210;2022-07-11T00:04:58;4.50;;;3.50;;
8277;SDS011;4177;50.994;6.210;2022-07-11T00:07:26;3.87;;;3.47;;
8277;SDS011;4177;50.994;6.210;2022-07-11T00:09:52;6.20;;;3.50;;
8277;SDS011;4177;50.994;6.210;2022-07-11T00:12:17;4.33;;;3.40;;
8277;SDS011;4177;50.994;6.210;2022-07-11T00:14:45;5.07;;;3.43;;
8277;SDS011;4177;50.994;6.210;2022-07-11T00:17:11;5.30;;;3.53;;
8277;SDS011;4177;50.994;6.210;2022-07-11T00:19:36;4.77;;;3.50;;
8277;SDS011;4177;50.994;6.210;2022-07-11T00:22:02;5.37;;;3.40;;
8277;SDS011;4177;50.994;6.210;2022-07-11T00:24:27;4.47;;;3.43;;
8277;SDS011;4177;50.994;6.210;2022-07-11T00:26:56;4.07;;;3.67;;
8277;SDS011;4177;50.994;6.210;2022-07-11T00:29:21;4.27;;;3.30;;
8277;SDS011;4177;50.994;6.210;2022-07-11T00:31:47;5.07;;;3.97;;
8277;SDS011;4177;50.994;6.210;2022-07-11T00:34:12;6.13;;;3.00;;
8277;SDS011;4177;50.994;6.210;2022-07-11T00:36:38;4.00;;;3.57;;
8277;SDS011;4177;50.994;6.210;2022-07-11T00:39:03;5.23;;;3.40;;
8277;SDS011;4177;50.994;6.210;2022-07-11T00:41:29;3.40;;;3.10;;
8277;SDS011;4177;50.994;6.210;2022-07-11T00:43:55;5.13;;;3.53;;
8277;SDS011;4177;50.994;6.210;2022-07-11T00:46:22;4.77;;;3.77;;
8277;SDS011;4177;50.994;6.210;2022-07-11T00:48:47;5.30;;;3.87;;
8277;SDS011;4177;50.994;6.210;2022-07-11T00:51:13;5.50;;;3.77;;
8277;SDS011;4177;50.994;6.210;2022-07-11T00:53:39;7.43;;;4.00;;
8277;SDS011;4177;50.994;6.210;2022-07-11T00:56:05;3.63;;;3.33;;
8277;SDS011;4177;50.994;6.210;2022-07-11T00:58:31;7.07;;;4.30;;
8277;SDS011;4177;50.994;6.210;2022-07-11T01:00:56;7.43;;;4.00;;
8277;SDS011;4177;50.994;6.210;2022-07-11T01:03:22;5.23;;;3.97;;
8277;SDS011;4177;50.994;6.210;2022-07-11T01:05:50;5.07;;;4.13;;
8277;SDS011;4177;50.994;6.210;2022-07-11T01:08:15;6.63;;;4.60;;
8277;SDS011;4177;50.994;6.210;2022-07-11T01:10:40;5.17;;;4.27;;
8277;SDS011;4177;50.994;6.210;2022-07-11T01:13:06;6.03;;;4.03;;
8277;SDS011;4177;50.994;6.210;2022-07-11T01:15:35;6.97;;;4.73;;
8277;SDS011;4177;50.994;6.210;2022-07-11T01:18:01;7.33;;;4.60;;
8277;SDS011;4177;50.994;6.210;2022-07-11T01:20:27;5.73;;;4.57;;
8277;SDS011;4177;50.994;6.210;2022-07-11T01:22:53;7.70;;;5.30;;
8277;SDS011;4177;50.994;6.210;2022-07-11T01:25:19;7.10;;;4.90;;
8277;SDS011;4177;50.994;6.210;2022-07-11T01:28:05;9.13;;;4.90;;
8277;SDS011;4177;50.994;6.210;2022-07-11T01:30:31;7.27;;;5.30;;
8277;SDS011;4177;50.994;6.210;2022-07-11T01:32:57;7.53;;;5.20;;
8277;SDS011;4177;50.994;6.210;2022-07-11T01:35:24;10.60;;;5.47;;
8277;SDS011;4177;50.994;6.210;2022-07-11T01:37:50;5.23;;;4.73;;
8277;SDS011;4177;50.994;6.210;2022-07-11T01:40:15;7.07;;;5.20;;
8277;SDS011;4177;50.994;6.210;2022-07-11T01:42:41;7.50;;;5.23;;
8277;SDS011;4177;50.994;6.210;2022-07-11T01:45:07;6.47;;;4.77;;
8277;SDS011;4177;50.994;6.210;2022-07-11T01:47:35;7.40;;;5.43;;
8277;SDS011;4177;50.994;6.210;2022-07-11T01:50:00;5.67;;;5.10;;
8277;SDS011;4177;50.994;6.210;2022-07-11T01:52:26;7.20;;;5.67;;
8277;SDS011;4177;50.994;6.210;2022-07-11T01:54:52;7.07;;;5.67;;
8277;SDS011;4177;50.994;6.210;2022-07-11T01:57:18;7.27;;;5.37;;
8277;SDS011;4177;50.994;6.210;2022-07-11T01:59:43;8.60;;;5.53;;
8277;SDS011;4177;50.994;6.210;2022-07-11T02:02:12;6.13;;;5.37;;
8277;SDS011;4177;50.994;6.210;2022-07-11T02:04:38;8.33;;;5.43;;
8277;SDS011;4177;50.994;6.210;2022-07-11T02:07:03;7.10;;;5.30;;
8277;SDS011;4177;50.994;6.210;2022-07-11T02:09:29;8.97;;;5.43;;
8277;SDS011;4177;50.994;6.210;2022-07-11T02:11:54;6.20;;;5.43;;
8277;SDS011;4177;50.994;6.210;2022-07-11T02:14:20;4.80;;;4.27;;
8277;SDS011;4177;50.994;6.210;2022-07-11T02:16:47;9.63;;;5.70;;
8277;SDS011;4177;50.994;6.210;2022-07-11T02:19:12;8.13;;;5.73;;
8277;SDS011;4177;50.994;6.210;2022-07-11T02:21:37;11.03;;;5.87;;
8277;SDS011;4177;50.994;6.210;2022-07-11T02:24:03;8.77;;;6.10;;
8277;SDS011;4177;50.994;6.210;2022-07-11T02:26:29;7.53;;;4.97;;
8277;SDS011;4177;50.994;6.210;2022-07-11T02:28:54;8.73;;;6.07;;
8277;SDS011;4177;50.994;6.210;2022-07-11T02:31:20;8.20;;;5.60;;
8277;SDS011;4177;50.994;6.210;2022-07-11T02:33:46;8.97;;;5.57;;
8277;SDS011;4177;50.994;6.210;2022-07-11T02:36:11;9.67;;;5.80;;
8277;SDS011;4177;50.994;6.210;2022-07-11T02:38:37;7.07;;;5.90;;
8277;SDS011;4177;50.994;6.210;2022-07-11T02:41:02;11.37;;;6.40;;
8277;SDS011;4177;50.994;6.210;2022-07-11T02:43:28;6.13;;;5.53;;
8277;SDS011;4177;50.994;6.210;2022-07-11T02:45:54;10.13;;;6.57;;
8277;SDS011;4177;50.994;6.210;2022-07-11T02:48:20;8.37;;;5.93;;
8277;SDS011;4177;50.994;6.210;2022-07-11T02:50:46;12.23;;;6.73;;
8277;SDS011;4177;50.994;6.210;2022-07-11T02:53:11;9.97;;;6.33;;
8277;SDS011;4177;50.994;6.210;2022-07-11T02:55:37;9.37;;;6.53;;
8277;SDS011;4177;50.994;6.210;2022-07-11T02:58:02;8.70;;;5.70;;
8277;SDS011;4177;50.994;6.210;2022-07-11T03:00:28;9.63;;;6.60;;
8277;SDS011;4177;50.994;6.210;2022-07-11T03:02:54;6.57;;;5.97;;
8277;SDS011;4177;50.994;6.210;2022-07-11T03:05:19;7.63;;;6.83;;
8277;SDS011;4177;50.994;6.210;2022-07-11T03:07:47;6.10;;;5.40;;
8277;SDS011;4177;50.994;6.210;2022-07-11T03:10:13;7.17;;;6.47;;
8277;SDS011;4177;50.994;6.210;2022-07-11T03:12:38;10.17;;;6.23;;
8277;SDS011;4177;50.994;6.210;2022-07-11T03:15:04;9.47;;;7.60;;
8277;SDS011;4177;50.994;6.210;2022-07-11T03:17:30;8.60;;;7.60;;
8277;SDS011;4177;50.994;6.210;2022-07-11T03:19:59;11.47;;;7.37;;
8277;SDS011;4177;50.994;6.210;2022-07-11T03:22:26;12.70;;;7.57;;
8277;SDS011;4177;50.994;6.210;2022-07-11T03:24:51;8.67;;;6.67;;
8277;SDS011;4177;50.994;6.210;2022-07-11T03:27:17;8.63;;;6.77;;
8277;SDS011;4177;50.994;6.210;2022-07-11T03:29:42;8.10;;;7.30;;
8277;SDS011;4177;50.994;6.210;2022-07-11T03:32:10;9.27;;;7.70;;
8277;SDS011;4177;50.994;6.210;2022-07-11T03:34:35;12.60;;;7.73;;
8277;SDS011;4177;50.994;6.210;2022-07-11T03:37:01;11.43;;;7.90;;
8277;SDS011;4177;50.994;6.210;2022-07-11T03:39:27;7.50;;;6.73;;
8277;SDS011;4177;50.994;6.210;2022-07-11T03:41:52;8.40;;;7.47;;
8277;SDS011;4177;50.994;6.210;2022-07-11T03:44:18;11.73;;;7.77;;
8277;SDS011;4177;50.994;6.210;2022-07-11T03:46:43;8.63;;;7.30;;
8277;SDS011;4177;50.994;6.210;2022-07-11T03:49:09;10.63;;;7.83;;
8277;SDS011;4177;50.994;6.210;2022-07-11T03:51:34;11.90;;;8.33;;
8277;SDS011;4177;50.994;6.210;2022-07-11T03:54:00;14.20;;;8.10;;
8277;SDS011;4177;50.994;6.210;2022-07-11T03:56:25;13.63;;;8.40;;
8277;SDS011;4177;50.994;6.210;2022-07-11T03:58:51;8.67;;;7.43;;
8277;SDS011;4177;50.994;6.210;2022-07-11T04:01:16;17.93;;;8.93;;
8277;SDS011;4177;50.994;6.210;2022-07-11T04:03:42;10.07;;;7.40;;
8277;SDS011;4177;50.994;6.210;2022-07-11T04:06:07;11.73;;;8.87;;
8277;SDS011;4177;50.994;6.210;2022-07-11T04:08:33;12.77;;;8.30;;
8277;SDS011;4177;50.994;6.210;2022-07-11T04:10:59;11.97;;;8.67;;
8277;SDS011;4177;50.994;6.210;2022-07-11T04:13:24;13.37;;;9.13;;
8277;SDS011;4177;50.994;6.210;2022-07-11T04:15:50;11.23;;;8.00;;
8277;SDS011;4177;50.994;6.210;2022-07-11T04:18:15;9.40;;;8.50;;
8277;SDS011;4177;50.994;6.210;2022-07-11T04:20:44;8.87;;;7.90;;
8277;SDS011;4177;50.994;6.210;2022-07-11T04:23:10;8.93;;;8.13;;
8277;SDS011;4177;50.994;6.210;2022-07-11T04:25:35;10.63;;;8.23;;
8277;SDS011;4177;50.994;6.210;2022-07-11T04:28:01;14.30;;;8.43;;
8277;SDS011;4177;50.994;6.210;2022-07-11T04:30:26;8.33;;;7.57;;
8277;SDS011;4177;50.994;6.210;2022-07-11T04:32:52;10.20;;;8.63;;
8277;SDS011;4177;50.994;6.210;2022-07-11T04:35:17;14.03;;;8.73;;
8277;SDS011;4177;50.994;6.210;2022-07-11T04:37:43;16.40;;;9.13;;
8277;SDS011;4177;50.994;6.210;2022-07-11T04:40:09;13.43;;;8.07;;
8277;SDS011;4177;50.994;6.210;2022-07-11T04:42:35;11.07;;;9.43;;
8277;SDS011;4177;50.994;6.210;2022-07-11T04:45:00;17.20;;;9.03;;
8277;SDS011;4177;50.994;6.210;2022-07-11T04:47:26;20.93;;;9.60;;
8277;SDS011;4177;50.994;6.210;2022-07-11T04:49:51;20.33;;;10.40;;
8277;SDS011;4177;50.994;6.210;2022-07-11T04:52:17;13.63;;;9.33;;
8277;SDS011;4177;50.994;6.210;2022-07-11T04:54:43;13.40;;;9.40;;
8277;SDS011;4177;50.994;6.210;2022-07-11T04:57:08;11.57;;;8.73;;
8277;SDS011;4177;50.994;6.210;2022-07-11T04:59:36;11.83;;;8.97;;
8277;SDS011;4177;50.994;6.210;2022-07-11T05:02:02;11.43;;;7.97;;
8277;SDS011;4177;50.994;6.210;2022-07-11T05:04:28;10.47;;;8.63;;
8277;SDS011;4177;50.994;6.210;2022-07-11T05:06:53;11.77;;;8.67;;
8277;SDS011;4177;50.994;6.210;2022-07-11T05:09:19;12.07;;;9.60;;
8277;SDS011;4177;50.994;6.210;2022-07-11T05:11:44;15.57;;;9.47;;
8277;SDS011;4177;50.994;6.210;2022-07-11T05:14:10;9.40;;;8.40;;
8277;SDS011;4177;50.994;6.210;2022-07-11T05:16:35;12.10;;;9.50;;
8277;SDS011;4177;50.994;6.210;2022-07-11T05:19:01;12.70;;;8.67;;
8277;SDS011;4177;50.994;6.210;2022-07-11T05:21:26;12.10;;;9.20;;
8277;SDS011;4177;50.994;6.210;2022-07-11T05:23:54;12.87;;;9.43;;
8277;SDS011;4177;50.994;6.210;2022-07-11T05:26:22;11.20;;;9.80;;
8277;SDS011;4177;50.994;6.210;2022-07-11T05:28:48;14.10;;;9.00;;
8277;SDS011;4177;50.994;6.210;2022-07-11T05:31:14;10.43;;;8.67;;
8277;SDS011;4177;50.994;6.210;2022-07-11T05:33:39;13.03;;;8.83;;
8277;SDS011;4177;50.994;6.210;2022-07-11T05:36:05;9.83;;;8.90;;
8277;SDS011;4177;50.994;6.210;2022-07-11T05:38:31;9.17;;;8.23;;
8277;SDS011;4177;50.994;6.210;2022-07-11T05:40:56;10.00;;;8.37;;
8277;SDS011;4177;50.994;6.210;2022-07-11T05:43:23;14.53;;;8.37;;
8277;SDS011;4177;50.994;6.210;2022-07-11T05:45:48;11.37;;;7.80;;
8277;SDS011;4177;50.994;6.210;2022-07-11T05:48:14;8.60;;;7.47;;
8277;SDS011;4177;50.994;6.210;2022-07-11T05:50:39;12.23;;;7.80;;
8277;SDS011;4177;50.994;6.210;2022-07-11T05:53:05;8.53;;;7.57;;
8277;SDS011;4177;50.994;6.210;2022-07-11T05:55:30;9.33;;;8.40;;
8277;SDS011;4177;50.994;6.210;2022-07-11T05:57:56;13.07;;;7.87;;
8277;SDS011;4177;50.994;6.210;2022-07-11T06:00:22;11.80;;;8.00;;
8277;SDS011;4177;50.994;6.210;2022-07-11T06:02:48;11.37;;;6.67;;
8277;SDS011;4177;50.994;6.210;2022-07-11T06:05:16;8.97;;;7.47;;
8277;SDS011;4177;50.994;6.210;2022-07-11T06:07:47;7.77;;;6.97;;
8277;SDS011;4177;50.994;6.210;2022-07-11T06:10:31;10.00;;;7.80;;
8277;SDS011;4177;50.994;6.210;2022-07-11T06:13:02;9.67;;;7.60;;
8277;SDS011;4177;50.994;6.210;2022-07-11T06:15:30;10.00;;;7.60;;
8277;SDS011;4177;50.994;6.210;2022-07-11T06:17:56;10.57;;;8.27;;
8277;SDS011;4177;50.994;6.210;2022-07-11T06:20:24;9.60;;;7.27;;
8277;SDS011;4177;50.994;6.210;2022-07-11T06:22:49;13.27;;;8.10;;
8277;SDS011;4177;50.994;6.210;2022-07-11T06:25:15;8.00;;;7.10;;
8277;SDS011;4177;50.994;6.210;2022-07-11T06:27:41;11.70;;;7.03;;
8277;SDS011;4177;50.994;6.210;2022-07-11T06:30:06;12.37;;;7.37;;
8277;SDS011;4177;50.994;6.210;2022-07-11T06:32:32;13.03;;;7.20;;
8277;SDS011;4177;50.994;6.210;2022-07-11T06:34:57;9.73;;;6.30;;
8277;SDS011;4177;50.994;6.210;2022-07-11T06:37:23;9.10;;;6.60;;
8277;SDS011;4177;50.994;6.210;2022-07-11T06:39:51;5.10;;;3.60;;
8277;SDS011;4177;50.994;6.210;2022-07-11T06:42:17;7.07;;;3.20;;
8277;SDS011;4177;50.994;6.210;2022-07-11T06:44:42;6.13;;;3.00;;
8277;SDS011;4177;50.994;6.210;2022-07-11T06:47:08;7.83;;;3.07;;
8277;SDS011;4177;50.994;6.210;2022-07-11T06:49:36;6.87;;;2.63;;
8277;SDS011;4177;50.994;6.210;2022-07-11T06:52:01;5.77;;;2.60;;
8277;SDS011;4177;50.994;6.210;2022-07-11T06:54:27;3.40;;;2.23;;
8277;SDS011;4177;50.994;6.210;2022-07-11T06:56:52;5.90;;;2.60;;
8277;SDS011;4177;50.994;6.210;2022-07-11T06:59:18;6.63;;;2.60;;
8277;SDS011;4177;50.994;6.210;2022-07-11T07:01:43;7.00;;;2.67;;
8277;SDS011;4177;50.994;6.210;2022-07-11T07:04:09;4.87;;;2.50;;
8277;SDS011;4177;50.994;6.210;2022-07-11T07:06:35;6.93;;;3.00;;
8277;SDS011;4177;50.994;6.210;2022-07-11T07:09:01;5.30;;;2.60;;
8277;SDS011;4177;50.994;6.210;2022-07-11T07:11:28;7.03;;;3.17;;
8277;SDS011;4177;50.994;6.210;2022-07-11T07:13:53;5.73;;;3.03;;
8277;SDS011;4177;50.994;6.210;2022-07-11T07:16:19;5.20;;;3.00;;
8277;SDS011;4177;50.994;6.210;2022-07-11T07:18:44;7.80;;;3.30;;
8277;SDS011;4177;50.994;6.210;2022-07-11T07:21:12;6.37;;;3.40;;
8277;SDS011;4177;50.994;6.210;2022-07-11T07:23:39;6.87;;;3.70;;
8277;SDS011;4177;50.994;6.210;2022-07-11T07:26:05;6.23;;;3.97;;
8277;SDS011;4177;50.994;6.210;2022-07-11T07:28:31;5.23;;;3.50;;
8277;SDS011;4177;50.994;6.210;2022-07-11T07:30:56;4.00;;;3.70;;
8277;SDS011;4177;50.994;6.210;2022-07-11T07:33:22;5.03;;;3.90;;
8277;SDS011;4177;50.994;6.210;2022-07-11T07:35:47;7.33;;;4.33;;
8277;SDS011;4177;50.994;6.210;2022-07-11T07:38:13;5.20;;;4.37;;
8277;SDS011;4177;50.994;6.210;2022-07-11T07:40:38;7.60;;;4.57;;
8277;SDS011;4177;50.994;6.210;2022-07-11T07:43:03;7.40;;;5.03;;
8277;SDS011;4177;50.994;6.210;2022-07-11T07:45:29;6.97;;;4.87;;
8277;SDS011;4177;50.994;6.210;2022-07-11T07:47:54;6.20;;;4.50;;
8277;SDS011;4177;50.994;6.210;2022-07-11T07:50:19;5.10;;;4.60;;
8277;SDS011;4177;50.994;6.210;2022-07-11T07:52:45;4.43;;;4.03;;
8277;SDS011;4177;50.994;6.210;2022-07-11T07:55:11;4.07;;;3.77;;
8277;SDS011;4177;50.994;6.210;2022-07-11T07:57:36;4.70;;;4.30;;
8277;SDS011;4177;50.994;6.210;2022-07-11T08:00:03;4.87;;;4.20;;
8277;SDS011;4177;50.994;6.210;2022-07-11T08:02:47;3.87;;;3.57;;
8277;SDS011;4177;50.994;6.210;2022-07-11T08:05:13;5.40;;;3.80;;
8277;SDS011;4177;50.994;6.210;2022-07-11T08:07:38;6.53;;;3.93;;
8277;SDS011;4177;50.994;6.210;2022-07-11T08:10:04;5.53;;;3.87;;
8277;SDS011;4177;50.994;6.210;2022-07-11T08:12:30;6.57;;;3.87;;
8277;SDS011;4177;50.994;6.210;2022-07-11T08:14:55;6.03;;;4.00;;
8277;SDS011;4177;50.994;6.210;2022-07-11T08:17:20;7.47;;;4.37;;
8277;SDS011;4177;50.994;6.210;2022-07-11T08:19:45;6.67;;;4.20;;
8277;SDS011;4177;50.994;6.210;2022-07-11T08:22:11;8.00;;;4.30;;
8277;SDS011;4177;50.994;6.210;2022-07-11T08:24:36;10.83;;;4.57;;
8277;SDS011;4177;50.994;6.210;2022-07-11T08:27:02;7.37;;;3.87;;
8277;SDS011;4177;50.994;6.210;2022-07-11T08:29:28;4.83;;;3.93;;
8277;SDS011;4177;50.994;6.210;2022-07-11T08:31:53;5.40;;;4.03;;
8277;SDS011;4177;50.994;6.210;2022-07-11T08:34:18;7.60;;;4.13;;
8277;SDS011;4177;50.994;6.210;2022-07-11T08:36:43;7.13;;;4.03;;
8277;SDS011;4177;50.994;6.210;2022-07-11T08:39:09;5.97;;;4.10;;
8277;SDS011;4177;50.994;6.210;2022-07-11T08:41:34;5.00;;;4.20;;
8277;SDS011;4177;50.994;6.210;2022-07-11T08:44:01;5.23;;;4.10;;
8277;SDS011;4177;50.994;6.210;2022-07-11T08:46:27;4.63;;;3.70;;
8277;SDS011;4177;50.994;6.210;2022-07-11T08:48:53;5.77;;;3.70;;
8277;SDS011;4177;50.994;6.210;2022-07-11T08:51:19;11.77;;;3.57;;
8277;SDS011;4177;50.994;6.210;2022-07-11T08:53:45;4.20;;;3.23;;
8277;SDS011;4177;50.994;6.210;2022-07-11T08:56:11;5.63;;;3.10;;
8277;SDS011;4177;50.994;6.210;2022-07-11T08:58:40;3.17;;;2.87;;
8277;SDS011;4177;50.994;6.210;2022-07-11T09:01:06;2.77;;;2.50;;
8277;SDS011;4177;50.994;6.210;2022-07-11T09:03:32;2.83;;;2.63;;
8277;SDS011;4177;50.994;6.210;2022-07-11T09:05:58;3.60;;;2.70;;
8277;SDS011;4177;50.994;6.210;2022-07-11T09:08:23;2.60;;;2.40;;
8277;SDS011;4177;50.994;6.210;2022-07-11T09:10:48;4.27;;;2.90;;
8277;SDS011;4177;50.994;6.210;2022-07-11T09:13:14;4.17;;;2.70;;
8277;SDS011;4177;50.994;6.210;2022-07-11T09:23:49;2.93;;;2.40;;
8277;SDS011;4177;50.994;6.210;2022-07-11T09:26:34;31.23;;;3.10;;
